This site, now in its 15th season, is a labour of love and fun from one of Ottawa's most avid time trialists and number crunchers. It adheres to and is permitted by the laws of Canada, promotes the objectives of every bicycle club whose results are shown, and is donated free of charge by myself for your enjoyment and usage. If you would like results from series you ride in to be shown here, give me (celia@drmath.ca) a shout!


Index Page
ATT OTT WTT AATT CFCTT VVVTT
Help resultformat:
Case-sensitive

OBC Open TT Series - 2008-Jul-17 - 15km (Rockliffe Pkwy) (EvtFactor = 0.9400)

Weather (18:00): Mostly Cloudy. Temp.: 28C, Humidity: 48%, Dew Point: 16C, Wind: S 11km/h, Pressure: 101.7kPa, Vis: 24km, Humidex: 32.
Weather (19:00): Cloudy. Temp.: 26C, Humidity: 57%, Dew Point: 17C, Wind: S 4km/h, Pressure: 101.6kPa, Vis: 24km, Humidex: 31.
Weather (20:00): Partly Cloudy. Temp.: 25C, Humidity: 60%, Dew Point: 17C, Wind: S 8km/h, Pressure: 101.6kPa, Vis: 24km, Humidex: 31.

Send photos with description (when/where/what) of yourself on or off of bike to celia@drmath.ca

These results were first posted on the OBC site circa 23:45 on 2008-Jul-17 and are available here for your added pleasure and analysis.

Some great riding tonight. You may click here to see a graph of the season's performances of the top three men and women. Note that Erika set a new PB as well as an all-time best for the VCF category, while Sara Domina improved by almost 1.7km/h to set a year best in the SEF category. Michael Nash tied his season's best in his third sub-19 minute time trial. Alison rode well after a very successful couple of weekends of racing. Despite the relatively high air pressure, this was the 5th fastest, in terms of the average of the average speeds, databased OTT evening thus far in terms of the average of the average speeds, surpassed only by 2008-Jun-26, 2007-Aug-23, 1998-Jun-25 and 1999-Sep-02. You can see all of these days on the same page by visiting here. There were excellent improvements in OTT 2008 performances - with seven riders bettering their previous 2008 OTT best speed by more than 10%! The most improved of these was young rider Derek Gee, who ranks very close to the top in the all-time PWM results. It is wonderful to see such a varied collection of males and females of all speeds and ages - from 11 to 80 - out there having fun competing. Check out the age handicapped times after applying the OBC Age Handicap Method of 2003. It is also interesting to see how the British VTTA method might apply both age and gender handicaps to our times tonight.

 
 

BESTS?
 
1 Nash, Michael  OBC 18:52 47.703 1/64 VBM 1/18 1.0000
2 Amos, Ron  OBC/RWR 19:29 46.193 2/64 VBM 2/18 1.0051
3 Rendall, Glen  RWR 19:42 45.685 3/64 VAM 1/9 0.9773
4 Munden, David EMD 20:16 44.408 4/64 VAM 2/9 1.0350
5 Devisscher, Thomas APK 20:18 44.335 5/64 SEM 1/6 0.9927
6 Gee, Jon OBC 20:25 44.082 6/64 VBM 3/18 0.9830
7 Tsilemos, Jim RWR 20:30 43.902 7/64 VAM 3/9 1.0622
8 Hamilton, Peter OBC 20:31 43.867 8/64 VBM 4/18 0.9782
9 Sudac, Rick  OBC/RWR 20:34 43.760 9/64 VCM 1/9 0.9569
10 Zappe, Erich RWR 20:37 43.654 10/64 VBM 5/18 1.0319
11 DeLuco, Matt EUR 20:40 43.548 11/64 SEM 2/6  
12 Christie, Greg  OBC/RWR 20:46 43.339 12/64 VCM 2/9 1.0665
13 Dal-Cin, Matteo  EUR 20:47 43.304 13/64 JUM 1/3 1.0097
14 Martin, David OBC 20:57 42.959 14/64 VAM 4/9 1.0484
15 Radford, Iain OBC 21:00 42.857 15/64 VAM 5/9 0.9740
16 Sidhu, Joël ULT 21:01 42.823 16/64 SEM 3/6 1.0024
17 Cornel, Logan  EUR 21:08 42.587 17/64 JUM 2/3 0.9696
18 Damen, Trevor OBC/EUR 21:23 42.089 18/64 JUM 3/3 1.0403
19 Morvan, Jacques  OBC 21:30 41.860 19/64 VDM 1/6 1.0234
20 Gerrard, David  OBC 21:36 41.667 20/64 VBM 6/18 1.0955
Y 21 Domina, Sara OBC 21:44 41.411 21/64 SEF 1/2 1.1320
22 Durand, Bernard  OBC 21:47 41.316 22/64 VBM 7/18 1.0419
McKay, Allison  OBC/RDO 21:47 41.316 22/64 VBF 1/3 0.9795
24 Zuliani, Greg RWR 21:54 41.096 24/64 SEM 4/6  
25 Farish, Neil  OBC/RWR 21:55 41.065 25/64 VCM 3/9 1.1161
26 Balcom, Ray RWR 22:04 40.785 26/64 VCM 4/9  
27 Thompson, William OBC 22:06 40.724 27/64 VBM 8/18 1.1126
28 Revesz, Erika  OBC 22:26 40.119 28/64 VCF 1/4 1.0942
29 Shaver, Patrick OBC 22:38 39.764 29/64 SEM 5/6 1.0044
30 Heffler, Paul OBC 22:41 39.677 30/64 VBM 9/18 0.9165
31 Dorego, Jean-Louis OBC 23:13 38.765 31/64 VCM 5/9 0.9807
32 Grace, Darrin  OBC/EUR 23:15 38.710 32/64 VBM 10/18 1.1138
Moerman, Bram  OBC 23:15 38.710 32/64 VDM 2/6 0.9349
34 Burdett, Avery  OBC 23:16 38.682 34/64 VDM 3/6 0.9829
35 Kerckhoff, Hermann  RWR 23:21 38.544 35/64 VEM 1/1 0.9809
36 Gates, Sean OBC 23:34 38.190 36/64 VBM 11/18 1.0762
37 Coney, Sarah OBC 23:36 38.136 37/64 SEF 2/2 0.9196
38 Hind, Terry OBC/EUR 23:37 38.109 38/64 VCM 6/9 1.0064
39 Wright, David OBC/RWR 23:38 38.082 39/64 VBM 12/18 1.0560
40 Heij, Shawn OBC 23:40 38.028 40/64 VAM 6/9 1.0385
41 Desjardins, Marcel OBC 23:49 37.789 41/64 VDM 4/6 0.9834
42 Coldwell, Michael  ABC 23:58 37.552 42/64 VBM 13/18  
43 Coney, Michael OBC 24:00 37.500 43/64 VDM 5/6 0.9875
44 Dionne, Suzanne  OBC 24:05 37.370 44/64 VBF 2/3 1.1030
45 Yaeger, Dave  OBC 24:19 37.012 45/64 VCM 7/9  
46 Simard, Martin OBC 24:20 36.986 46/64 VBM 14/18 1.0206
47 Lavoie, Jean-Pierre OBC 24:21 36.961 47/64 VBM 15/18  
48 Imbrogno, Giorgio  OBC 24:45 36.364 48/64 VCM 8/9 0.9940
49 Coney, Ingrid  OBC 24:53 36.169 49/64 VCF 2/4 0.9860
50 McInnis, Celia  OBC/ABC 24:54 36.145 50/64 VCF 3/4 0.9702
51 Samborsky, Mark OBC 25:05 35.880 51/64 VAM 7/9 0.9318
52 Langevin, Roger  OBC 25:07 35.833 52/64 VAM 8/9 1.0734
Robitaille, Brian 
(MTB: Getting serious - Rear shock air adjustable for improved TT performance!)
OBC 25:07 35.833 52/64 VBM 16/18 0.9646
54 Marleau, Dianne  OBC/RWR 25:21 35.503 54/64 VBF 3/3 0.9960
55 Henry, Mike OBC 25:24 35.433 55/64 VAM 9/9 1.0399
56 Ajersch, Mary  OBC 25:48 34.884 56/64 VDF 1/1 1.1084
57 Gagné, Marc  OBC 26:09 34.417 57/64 VBM 17/18 0.8808
58 Gee, Derek  OBC 26:33 33.898 58/64 PWM 1/1 1.1667
Stoneham, Ron OBC 26:33 33.898 58/64 VDM 6/6 1.0753
60 White, Mitch OBC 26:52 33.499 60/64 VBM 18/18  
61 Tran, Anthony OBC 28:51 31.196 61/64 SEM 6/6  
62 Ramcharan, John OBC 28:58 31.070 62/64 VCM 9/9 1.0943
63 Antonietti, Jetje  OBC 29:28 30.543 63/64 VCF 4/4  
64 Wright, Geoffrey  OBC 29:39 30.354 64/64 VFM 1/1 1.0920
 
Average Speed of all of the above 64 finishes (960km in 24:45:48):38.767
>>>Average of the Average Speeds for these 64 finishes39.187<<<
 

The number of data records shown above is 64
The server processing of your query took: 0 wallclock secs ( 0.08 usr + 0.00 sys = 0.08 CPU)

Thanks to our Helpers: Ingrid Coney, Rodrigo Diaz, Gunter Hauschildt, Vytas Janusauskas, Cynthia Laforty, Alex McKnight.

     


Mar 21 (Good Friday)
Apr 24
May 1 May 6 (10km) May 8 May 13 (10km) May 15 May 20 May 20 (10km) May 22 May 27 May 27 (10km) May 29
Jun 1 (40km) Jun 3 Jun 3 Jun 5 Jun 10 Jun 10 Jun 12 Jun 17 Jun 17 Jun 19 Jun 24 Jun 24 Jun 26
Jul 1 (cancelled - ) Jul 2 Jul 3 Jul 6 (40km) Jul 8 Jul 8 Jul 10 Jul 15 Jul 15
  Jul 17  
Jul 22 Jul 22 Jul 24 Jul 27 (40km) Jul 29 Jul 29 Jul 31
Aug 5 Aug 5 Aug 7 Aug 10 (40km) Aug 12 Aug 12 Aug 14 Aug 19 Aug 19 Aug 21 Aug 26 Aug 26 (Invitational) Aug 28
Sep 2 Sep 4 Sep 7 (40km) Sep 9 Sep 11 Sep 16 Sep 21 (40km) Sep 23 Sep 30

OTT Rankings
Best       Best by category
WTT Rankings for OBC Members
5 Best Speeds     5 Best Speeds by category
OBC Member Best Three 15km Rankings
Overall     by category     age-Hcap Female   age-Hcap Male
OBC BAR Ranking
Overall     by category     Rider "Consistency-Graph"
ABC BAR Ranking
Overall     by category     Rider "Consistency-Graph"
Other years
TT Calculator All TT People All TT events
ABC Home VVV Home
CKAP GOLD MEDAL
Other Links

Note: OTT data from 2003 through 2006-Apr-14 and 2007-Apr-06-? and WTT from 2008-? is taken from the official OBC site.

Please send your comments and suggestions to: Celia McInnis
Copyright © 1998-2011 Celia McInnis. All rights reserved. Links are welcomed.